Time;durP1;ratioP1;P1;durP2;ratioP2;P2;SDS_P1;SDS_P2;PMS_P1;PMS_P2;Temp;Humidity;BMP_temperature;BMP_pressure;BME280_temperature;BME280_humidity;BME280_pressure;Samples;Min_cycle;Max_cycle;Signal;HPM_P1;HPM_P2
2022/04/27 00:00:16;;;;;;;;;;;9.20;99.90;;;;;;5029003;28;19987;-58
2022/04/27 00:02:42;;;;;;;;;;;9.10;99.90;;;;;;5029667;28;20361;-57
2022/04/27 00:05:08;;;;;;;;;;;9.10;99.90;;;;;;5029571;28;19932;-58
2022/04/27 00:07:33;;;;;;;;;;;9.00;99.90;;;;;;5053649;28;20031;-57
2022/04/27 00:09:58;;;;;;;;;;;9.00;99.90;;;;;;5032720;28;20381;-58
2022/04/27 00:12:25;;;;;;;;;;;9.00;99.90;;;;;;5031207;28;20463;-58
2022/04/27 00:14:50;;;;;;;;;;;8.90;99.90;;;;;;5029155;28;19919;-58
2022/04/27 00:17:15;;;;;;;;;;;8.90;99.90;;;;;;5032795;28;19921;-58
2022/04/27 00:19:41;;;;;;;;;;;8.90;99.90;;;;;;5028879;28;19913;-57
2022/04/27 00:22:06;;;;;;;;;;;8.80;99.90;;;;;;5028366;28;19917;-57
2022/04/27 00:24:32;;;;;;;;;;;8.70;99.90;;;;;;5028690;28;19913;-58
2022/04/27 00:26:57;;;;;;;;;;;8.70;99.90;;;;;;5054380;22;19913;-54
2022/04/27 00:29:23;;;;;;;;;;;8.60;99.90;;;;;;5049429;28;20008;-50
2022/04/27 00:31:48;;;;;;;;;;;8.50;99.90;;;;;;5049198;28;20007;-55
2022/04/27 00:34:14;;;;;;;;;;;8.50;99.90;;;;;;5050872;28;19919;-50
2022/04/27 00:36:39;;;;;;;;;;;8.50;99.90;;;;;;5048899;28;20319;-55
2022/04/27 00:39:04;;;;;;;;;;;8.40;99.90;;;;;;5048783;28;19970;-56
2022/04/27 00:41:30;;;;;;;;;;;8.40;99.90;;;;;;5051859;28;19918;-56
2022/04/27 00:43:56;;;;;;;;;;;8.30;99.90;;;;;;5052773;28;20432;-50
2022/04/27 00:46:21;;;;;;;;;;;8.30;99.90;;;;;;5050668;28;19920;-58
2022/04/27 00:48:47;;;;;;;;;;;8.20;99.90;;;;;;5055449;28;19923;-57
2022/04/27 00:51:14;;;;;;;;;;;8.20;99.90;;;;;;5048635;28;20211;-56
2022/04/27 00:53:40;;;;;;;;;;;8.20;99.90;;;;;;5047838;28;19921;-57
2022/04/27 00:56:06;;;;;;;;;;;8.20;99.90;;;;;;5049239;28;19923;-54
2022/04/27 00:58:32;;;;;;;;;;;8.10;99.90;;;;;;5052489;28;19913;-56
2022/04/27 01:00:57;;;;;;;;;;;8.10;99.90;;;;;;5048370;28;19917;-56
2022/04/27 01:03:23;;;;;;;;;;;8.10;99.90;;;;;;5048035;28;20008;-50
2022/04/27 01:05:48;;;;;;;;;;;8.00;99.90;;;;;;5050215;28;19921;-50
2022/04/27 01:08:15;;;;;;;;;;;8.00;99.90;;;;;;5050186;28;19913;-55
2022/04/27 01:10:41;;;;;;;;;;;8.00;99.90;;;;;;5048765;28;19975;-52
2022/04/27 01:13:07;;;;;;;;;;;8.00;99.90;;;;;;5048386;28;20011;-50
2022/04/27 01:15:35;;;;;;;;;;;7.90;99.90;;;;;;5053264;28;20012;-57
2022/04/27 01:18:02;;;;;;;;;;;7.90;99.90;;;;;;5051067;28;19921;-52
2022/04/27 01:20:31;;;;;;;;;;;7.80;99.90;;;;;;5051812;28;20373;-50
2022/04/27 01:22:57;;;;;;;;;;;7.80;99.90;;;;;;5052696;28;20387;-51
2022/04/27 01:25:23;;;;;;;;;;;7.70;99.90;;;;;;5049022;28;19924;-55
2022/04/27 01:27:48;;;;;;;;;;;7.70;99.90;;;;;;5047476;28;19925;-51
2022/04/27 01:30:14;;;;;;;;;;;7.70;99.90;;;;;;5048021;28;19917;-51
2022/04/27 01:32:39;;;;;;;;;;;7.60;99.90;;;;;;5052467;28;19913;-54
2022/04/27 01:35:05;;;;;;;;;;;7.60;99.90;;;;;;5048646;28;19929;-50
2022/04/27 01:40:14;;;;;;;;;;;7.50;99.90;;;;;;5051190;28;20023;-56
2022/04/27 01:42:39;;;;;;;;;;;7.50;99.90;;;;;;5047551;28;19944;-53
2022/04/27 01:45:06;;;;;;;;;;;7.40;99.90;;;;;;5046816;28;19963;-53
2022/04/27 01:47:32;;;;;;;;;;;7.40;99.90;;;;;;5051141;28;19919;-56
2022/04/27 01:49:57;;;;;;;;;;;7.30;99.90;;;;;;5047111;28;19923;-55
2022/04/27 01:55:07;;;;;;;;;;;7.30;99.90;;;;;;5051857;28;19919;-58
2022/04/27 01:57:32;;;;;;;;;;;7.30;99.90;;;;;;5052144;28;19920;-57
2022/04/27 01:59:58;;;;;;;;;;;7.30;99.90;;;;;;5048299;28;20433;-53
2022/04/27 02:02:23;;;;;;;;;;;7.30;99.90;;;;;;5048840;28;20912;-53
2022/04/27 02:04:49;;;;;;;;;;;7.30;99.90;;;;;;5053174;28;19916;-57
2022/04/27 02:07:14;;;;;;;;;;;7.20;99.90;;;;;;5055337;28;20580;-50
2022/04/27 02:09:40;;;;;;;;;;;7.10;99.90;;;;;;5056157;28;19928;-50
2022/04/27 02:12:06;;;;;;;;;;;7.10;99.90;;;;;;5055116;28;19912;-57
2022/04/27 02:14:31;;;;;;;;;;;7.00;99.90;;;;;;5053655;28;20435;-54
2022/04/27 02:16:57;;;;;;;;;;;7.00;99.90;;;;;;5054143;28;20198;-50
2022/04/27 02:19:23;;;;;;;;;;;7.00;99.90;;;;;;5055142;28;20296;-50
2022/04/27 02:21:48;;;;;;;;;;;7.00;99.90;;;;;;5053123;28;20391;-53
2022/04/27 02:24:14;;;;;;;;;;;6.90;99.90;;;;;;5047312;28;19958;-52
2022/04/27 02:26:41;;;;;;;;;;;6.90;99.90;;;;;;5048303;28;19916;-50
2022/04/27 02:29:07;;;;;;;;;;;6.90;99.90;;;;;;5048272;28;19917;-52
2022/04/27 02:31:33;;;;;;;;;;;6.80;99.90;;;;;;5050326;28;19921;-56
2022/04/27 02:33:58;;;;;;;;;;;6.70;99.90;;;;;;5046657;28;19977;-53
2022/04/27 02:36:24;;;;;;;;;;;6.60;99.90;;;;;;5047671;28;19942;-51
2022/04/27 02:38:49;;;;;;;;;;;6.60;99.90;;;;;;5048276;28;19999;-55
2022/04/27 02:41:15;;;;;;;;;;;6.50;99.90;;;;;;5051080;28;19920;-54
2022/04/27 02:43:40;;;;;;;;;;;6.50;99.90;;;;;;5046435;28;19921;-50
2022/04/27 02:46:06;;;;;;;;;;;6.50;99.90;;;;;;5056193;28;19966;-51
2022/04/27 02:48:31;;;;;;;;;;;6.40;99.90;;;;;;5047557;28;20258;-52
2022/04/27 02:53:41;;;;;;;;;;;6.40;99.90;;;;;;5051062;28;19919;-52
2022/04/27 02:56:07;;;;;;;;;;;6.40;99.90;;;;;;5049246;28;19913;-53
2022/04/27 02:58:32;;;;;;;;;;;6.40;99.90;;;;;;5049026;28;20378;-50
2022/04/27 03:00:57;;;;;;;;;;;6.40;99.90;;;;;;5046727;28;19964;-51
2022/04/27 03:03:23;;;;;;;;;;;6.40;99.90;;;;;;5047481;28;19912;-50
2022/04/27 03:05:48;;;;;;;;;;;6.30;99.90;;;;;;5049315;28;19917;-49
2022/04/27 03:08:14;;;;;;;;;;;6.40;99.90;;;;;;5050864;28;19966;-52
2022/04/27 03:10:39;;;;;;;;;;;6.40;99.90;;;;;;5047267;28;20027;-52
2022/04/27 03:13:05;;;;;;;;;;;6.40;99.90;;;;;;5048692;28;19944;-52
2022/04/27 03:15:32;;;;;;;;;;;6.30;99.90;;;;;;5047785;28;19971;-52
2022/04/27 03:20:41;;;;;;;;;;;6.30;99.90;;;;;;5046739;28;19920;-57
2022/04/27 03:23:07;;;;;;;;;;;6.30;99.90;;;;;;5046899;28;19925;-52
2022/04/27 03:25:33;;;;;;;;;;;6.20;99.90;;;;;;5051267;28;19916;-56
2022/04/27 03:27:58;;;;;;;;;;;6.10;99.90;;;;;;5050427;28;19927;-53
2022/04/27 03:30:24;;;;;;;;;;;6.10;99.90;;;;;;5046853;28;20377;-53
2022/04/27 03:32:49;;;;;;;;;;;6.10;99.90;;;;;;5051935;28;19921;-54
2022/04/27 03:35:15;;;;;;;;;;;6.10;99.90;;;;;;5052564;28;20423;-54
2022/04/27 03:37:41;;;;;;;;;;;6.00;99.90;;;;;;5053852;28;19920;-53
2022/04/27 03:40:07;;;;;;;;;;;6.00;99.90;;;;;;5052903;28;19930;-53
2022/04/27 03:42:32;;;;;;;;;;;6.00;99.90;;;;;;5054624;28;19916;-55
2022/04/27 03:44:57;;;;;;;;;;;6.00;99.90;;;;;;5058016;28;19912;-53
2022/04/27 03:47:23;;;;;;;;;;;5.90;99.90;;;;;;5054929;28;20007;-55
2022/04/27 03:49:49;;;;;;;;;;;5.90;99.90;;;;;;5054568;28;20293;-54
2022/04/27 03:52:14;;;;;;;;;;;5.80;99.90;;;;;;5047718;28;19917;-53
2022/04/27 03:54:39;;;;;;;;;;;5.90;99.90;;;;;;5054997;28;20003;-53
2022/04/27 03:57:05;;;;;;;;;;;5.80;99.90;;;;;;5046898;28;19921;-51
2022/04/27 03:59:30;;;;;;;;;;;5.80;99.90;;;;;;5046422;28;19956;-54
2022/04/27 04:01:56;;;;;;;;;;;5.80;99.90;;;;;;5049752;28;19924;-51
2022/04/27 04:04:21;;;;;;;;;;;5.70;99.90;;;;;;5048898;28;19920;-50
2022/04/27 04:06:48;;;;;;;;;;;5.80;99.90;;;;;;5051872;28;19913;-52
2022/04/27 04:09:13;;;;;;;;;;;5.80;99.90;;;;;;5049378;28;19913;-53
2022/04/27 04:11:39;;;;;;;;;;;5.80;99.90;;;;;;5054201;28;19928;-54
2022/04/27 04:14:04;;;;;;;;;;;5.80;99.90;;;;;;5050045;28;19948;-52
2022/04/27 04:16:30;;;;;;;;;;;5.80;99.90;;;;;;5050720;28;20594;-52
2022/04/27 04:18:55;;;;;;;;;;;5.80;99.90;;;;;;5049049;28;19916;-53
2022/04/27 04:21:21;;;;;;;;;;;5.90;99.90;;;;;;5049496;28;19913;-53
2022/04/27 04:23:46;;;;;;;;;;;6.00;99.90;;;;;;5048945;28;19923;-52
2022/04/27 04:28:56;;;;;;;;;;;6.40;99.90;;;;;;5049533;28;20392;-57
2022/04/27 04:31:21;;;;;;;;;;;6.60;99.90;;;;;;5049094;28;19948;-50
2022/04/27 04:33:46;;;;;;;;;;;6.90;99.90;;;;;;5050921;28;20208;-50
2022/04/27 04:36:12;;;;;;;;;;;7.10;99.90;;;;;;5053486;28;19912;-54
2022/04/27 04:38:38;;;;;;;;;;;7.40;99.90;;;;;;5048129;28;20011;-53
2022/04/27 04:41:03;;;;;;;;;;;7.60;99.90;;;;;;5048967;28;20297;-50
2022/04/27 04:43:32;;;;;;;;;;;7.80;99.90;;;;;;5049454;28;19920;-53
2022/04/27 04:45:58;;;;;;;;;;;8.00;99.90;;;;;;5057943;28;20014;-55
2022/04/27 04:48:23;;;;;;;;;;;8.10;99.90;;;;;;5049218;28;20098;-55
2022/04/27 04:50:49;;;;;;;;;;;8.20;99.90;;;;;;5051189;28;19924;-55
2022/04/27 04:53:14;;;;;;;;;;;8.40;99.90;;;;;;5053261;28;19917;-49
2022/04/27 04:55:40;;;;;;;;;;;8.50;99.90;;;;;;5049604;28;19915;-53
2022/04/27 04:58:05;;;;;;;;;;;8.60;99.90;;;;;;5048659;28;20331;-55
2022/04/27 05:00:31;;;;;;;;;;;8.80;99.90;;;;;;5056133;28;19913;-53
2022/04/27 05:02:56;;;;;;;;;;;8.90;99.90;;;;;;5056657;28;19917;-51
2022/04/27 05:05:22;;;;;;;;;;;9.00;99.90;;;;;;5052362;28;19921;-55
2022/04/27 05:07:47;;;;;;;;;;;9.00;99.90;;;;;;5050474;28;19970;-56
2022/04/27 05:10:13;;;;;;;;;;;9.30;99.90;;;;;;5052217;28;20000;-52
2022/04/27 05:12:38;;;;;;;;;;;9.50;99.90;;;;;;5053724;28;19944;-55
2022/04/27 05:15:04;;;;;;;;;;;9.50;99.90;;;;;;5052430;28;19912;-56
2022/04/27 05:17:29;;;;;;;;;;;9.50;99.90;;;;;;5047477;28;19924;-54
2022/04/27 05:19:55;;;;;;;;;;;9.60;99.90;;;;;;5049533;28;19920;-53
2022/04/27 05:22:20;;;;;;;;;;;9.70;99.90;;;;;;5051570;28;19913;-55
2022/04/27 05:24:46;;;;;;;;;;;9.80;99.90;;;;;;5051716;28;19952;-51
2022/04/27 05:27:11;;;;;;;;;;;10.10;99.90;;;;;;5049453;28;19913;-55
2022/04/27 05:32:21;;;;;;;;;;;10.50;99.90;;;;;;5050972;28;19970;-53
2022/04/27 05:34:47;;;;;;;;;;;10.30;99.90;;;;;;5053096;28;19920;-57
2022/04/27 05:37:12;;;;;;;;;;;10.00;99.90;;;;;;5056030;28;20390;-54
2022/04/27 05:39:38;;;;;;;;;;;9.90;99.90;;;;;;5057021;28;19967;-58
2022/04/27 05:42:03;;;;;;;;;;;9.80;99.90;;;;;;5057346;28;20369;-53
2022/04/27 05:44:29;;;;;;;;;;;9.90;99.90;;;;;;5050813;28;19970;-54
2022/04/27 05:46:55;;;;;;;;;;;9.90;99.90;;;;;;5049374;28;19913;-59
2022/04/27 05:49:20;;;;;;;;;;;9.80;99.90;;;;;;5050332;28;19916;-53
2022/04/27 05:51:46;;;;;;;;;;;9.70;99.90;;;;;;5054553;28;19920;-50
2022/04/27 05:54:15;;;;;;;;;;;9.70;99.90;;;;;;5050744;28;19920;-54
2022/04/27 05:56:41;;;;;;;;;;;9.70;99.90;;;;;;5048780;28;19916;-58
2022/04/27 05:59:07;;;;;;;;;;;9.70;99.90;;;;;;5050177;28;19912;-58
2022/04/27 06:01:32;;;;;;;;;;;9.70;99.90;;;;;;5047611;28;19943;-58
2022/04/27 06:03:58;;;;;;;;;;;9.70;99.90;;;;;;5048942;28;19920;-60
2022/04/27 06:06:23;;;;;;;;;;;9.70;99.90;;;;;;5047226;28;19917;-54
2022/04/27 06:08:49;;;;;;;;;;;9.70;99.90;;;;;;5047274;28;19939;-53
2022/04/27 06:11:16;;;;;;;;;;;9.70;99.90;;;;;;5048962;28;19920;-55
2022/04/27 06:13:42;;;;;;;;;;;9.80;99.90;;;;;;5053620;28;19912;-55
2022/04/27 06:16:08;;;;;;;;;;;9.90;99.90;;;;;;5049629;28;20287;-59
2022/04/27 06:18:33;;;;;;;;;;;10.00;99.90;;;;;;5048796;28;20293;-57
2022/04/27 06:20:58;;;;;;;;;;;10.00;99.90;;;;;;5052927;28;19945;-56
2022/04/27 06:23:24;;;;;;;;;;;10.10;99.90;;;;;;5056128;28;19923;-56
2022/04/27 06:25:50;;;;;;;;;;;10.10;99.90;;;;;;5055202;28;20007;-51
2022/04/27 06:28:16;;;;;;;;;;;10.20;99.90;;;;;;5059224;22;19925;-56
2022/04/27 06:30:41;;;;;;;;;;;10.30;99.90;;;;;;5027540;28;20007;-53
2022/04/27 06:33:07;;;;;;;;;;;10.40;99.90;;;;;;5032267;28;20011;-56
2022/04/27 06:35:32;;;;;;;;;;;10.40;99.90;;;;;;5032175;28;19913;-53
2022/04/27 06:37:58;;;;;;;;;;;10.40;99.90;;;;;;5020085;28;20024;-54
2022/04/27 06:40:24;;;;;;;;;;;10.40;99.90;;;;;;5007817;28;19992;-56
2022/04/27 06:42:51;;;;;;;;;;;10.40;99.90;;;;;;5010184;28;19917;-49
2022/04/27 06:45:17;;;;;;;;;;;10.50;99.90;;;;;;5008445;28;20378;-51
2022/04/27 06:47:42;;;;;;;;;;;10.60;99.90;;;;;;5011244;28;19914;-53
2022/04/27 06:50:08;;;;;;;;;;;10.90;99.90;;;;;;5007484;28;19921;-58
2022/04/27 06:52:41;;;;;;;;;;;11.00;99.90;;;;;;5007120;28;19921;-55
2022/04/27 06:55:07;;;;;;;;;;;11.00;99.90;;;;;;5014653;28;20282;-54
2022/04/27 06:57:32;;;;;;;;;;;11.20;99.60;;;;;;5009822;28;20062;-53
2022/04/27 06:59:57;;;;;;;;;;;11.20;99.50;;;;;;5008890;28;19965;-51
2022/04/27 07:02:23;;;;;;;;;;;11.30;99.70;;;;;;5012638;28;20010;-51
2022/04/27 07:04:55;;;;;;;;;;;11.40;99.50;;;;;;5014685;28;20094;-54
2022/04/27 07:07:21;;;;;;;;;;;11.40;99.20;;;;;;5016170;28;19928;-54
2022/04/27 07:09:46;;;;;;;;;;;11.40;99.30;;;;;;5015772;28;19913;-52
2022/04/27 07:12:13;;;;;;;;;;;11.50;99.30;;;;;;5014285;28;20291;-55
2022/04/27 07:14:38;;;;;;;;;;;11.50;99.30;;;;;;5015247;28;20031;-52
2022/04/27 07:17:04;;;;;;;;;;;11.60;99.10;;;;;;5012273;28;19921;-52
2022/04/27 07:19:29;;;;;;;;;;;11.60;99.00;;;;;;5009399;28;19949;-53
2022/04/27 07:21:55;;;;;;;;;;;11.60;98.70;;;;;;5008519;28;20000;-51
2022/04/27 07:24:20;;;;;;;;;;;11.50;99.00;;;;;;5007221;28;19972;-52
2022/04/27 07:26:46;;;;;;;;;;;11.60;98.70;;;;;;5007547;28;19917;-55
2022/04/27 07:29:11;;;;;;;;;;;11.60;98.80;;;;;;5009285;28;19999;-50
2022/04/27 07:31:37;;;;;;;;;;;11.70;99.10;;;;;;5014123;28;19914;-52
2022/04/27 07:34:02;;;;;;;;;;;11.80;99.00;;;;;;5019744;28;20421;-55
2022/04/27 07:36:28;;;;;;;;;;;12.00;98.60;;;;;;5015876;28;19921;-50
2022/04/27 07:38:53;;;;;;;;;;;12.00;98.50;;;;;;5020621;28;19916;-52
2022/04/27 07:41:19;;;;;;;;;;;12.00;98.30;;;;;;5014389;28;19917;-56
2022/04/27 07:43:44;;;;;;;;;;;11.90;98.50;;;;;;5011811;28;20345;-53
2022/04/27 07:46:11;;;;;;;;;;;12.00;98.40;;;;;;5020999;28;19925;-52
2022/04/27 07:48:37;;;;;;;;;;;12.10;98.60;;;;;;5016595;28;19917;-52
2022/04/27 07:51:03;;;;;;;;;;;12.40;98.70;;;;;;5011281;28;19944;-51
2022/04/27 07:53:29;;;;;;;;;;;12.50;98.10;;;;;;5011890;28;20345;-51
2022/04/27 07:55:54;;;;;;;;;;;12.60;97.90;;;;;;5011284;28;19914;-51
2022/04/27 07:58:20;;;;;;;;;;;12.50;97.90;;;;;;5013065;28;20302;-51
2022/04/27 08:00:45;;;;;;;;;;;12.60;97.80;;;;;;5012461;28;20285;-54
2022/04/27 08:03:11;;;;;;;;;;;12.60;97.60;;;;;;5010920;28;19925;-54
2022/04/27 08:05:36;;;;;;;;;;;12.70;97.80;;;;;;5011643;28;19913;-51
2022/04/27 08:08:02;;;;;;;;;;;12.80;97.00;;;;;;5010904;28;20020;-53
2022/04/27 08:10:27;;;;;;;;;;;12.80;96.90;;;;;;5014638;28;20375;-52
2022/04/27 08:12:53;;;;;;;;;;;12.80;97.10;;;;;;5011066;28;19918;-52
2022/04/27 08:15:19;;;;;;;;;;;12.90;97.00;;;;;;5011845;28;19957;-55
2022/04/27 08:17:52;;;;;;;;;;;13.00;97.00;;;;;;5017538;28;19975;-53
2022/04/27 08:23:02;;;;;;;;;;;13.40;97.10;;;;;;5017017;28;19999;-53
2022/04/27 08:25:27;;;;;;;;;;;13.60;96.40;;;;;;5018457;28;20340;-51
2022/04/27 08:27:53;;;;;;;;;;;13.60;96.10;;;;;;5017323;28;19975;-53
2022/04/27 08:30:18;;;;;;;;;;;13.60;96.20;;;;;;5012196;28;19917;-55
2022/04/27 08:32:44;;;;;;;;;;;13.50;96.20;;;;;;5011127;28;19993;-54
2022/04/27 08:35:09;;;;;;;;;;;13.50;95.40;;;;;;5020726;28;20413;-50
2022/04/27 08:37:34;;;;;;;;;;;13.50;95.30;;;;;;5010885;28;20382;-55
2022/04/27 08:40:01;;;;;;;;;;;13.50;95.80;;;;;;5012225;28;20516;-54
2022/04/27 08:42:26;;;;;;;;;;;13.70;95.80;;;;;;5012022;28;19918;-54
2022/04/27 08:44:52;;;;;;;;;;;13.90;95.20;;;;;;5011211;28;19921;-53
2022/04/27 08:47:18;;;;;;;;;;;13.90;95.10;;;;;;5010065;28;20392;-51
2022/04/27 08:49:43;;;;;;;;;;;13.90;94.60;;;;;;5009453;28;19925;-58
2022/04/27 08:52:11;;;;;;;;;;;14.00;94.70;;;;;;5011631;28;19921;-58
2022/04/27 08:54:36;;;;;;;;;;;14.10;95.30;;;;;;5014750;28;19968;-51
2022/04/27 08:57:03;;;;;;;;;;;14.40;95.50;;;;;;5014972;28;19925;-57
2022/04/27 08:59:28;;;;;;;;;;;14.60;95.10;;;;;;5012689;28;19924;-51
2022/04/27 09:01:54;;;;;;;;;;;14.60;94.50;;;;;;5011902;28;19914;-54
2022/04/27 09:04:19;;;;;;;;;;;14.60;93.30;;;;;;5008702;28;20382;-53
2022/04/27 09:06:47;;;;;;;;;;;14.50;94.00;;;;;;5012341;28;19913;-53
2022/04/27 09:09:33;;;;;;;;;;;14.60;94.60;;;;;;5010363;28;19917;-55
2022/04/27 09:11:58;;;;;;;;;;;14.70;93.90;;;;;;5012985;28;19918;-50
2022/04/27 09:14:35;;;;;;;;;;;14.70;94.70;;;;;;5008766;28;20301;-51
2022/04/27 09:22:42;;;;;;;;;;;14.80;93.80;;;;;;5008987;28;19959;-56
2022/04/27 09:25:08;;;;;;;;;;;14.80;94.40;;;;;;5012971;28;19917;-56
2022/04/27 09:27:34;;;;;;;;;;;14.90;94.10;;;;;;5012435;28;19924;-53
2022/04/27 09:30:00;;;;;;;;;;;15.00;93.30;;;;;;5010610;28;19917;-51
2022/04/27 09:32:26;;;;;;;;;;;15.10;94.20;;;;;;5016182;28;19936;-52
2022/04/27 09:34:51;;;;;;;;;;;15.20;92.20;;;;;;5017226;28;19917;-56
2022/04/27 09:37:17;;;;;;;;;;;15.40;93.50;;;;;;5015319;28;19923;-55
2022/04/27 09:39:46;;;;;;;;;;;15.60;93.30;;;;;;5011652;28;20241;-51
2022/04/27 09:42:14;;;;;;;;;;;15.70;92.00;;;;;;5010307;28;19968;-57
2022/04/27 09:44:39;;;;;;;;;;;15.60;91.80;;;;;;5015989;28;19913;-57
2022/04/27 09:47:06;;;;;;;;;;;15.50;91.80;;;;;;5010758;28;19914;-53
2022/04/27 09:49:32;;;;;;;;;;;15.50;91.80;;;;;;5009651;28;19917;-55
2022/04/27 09:51:58;;;;;;;;;;;15.60;91.70;;;;;;5010107;28;19929;-51
2022/04/27 09:54:24;;;;;;;;;;;15.50;91.30;;;;;;5010046;28;19921;-53
2022/04/27 09:56:50;;;;;;;;;;;15.40;86.90;;;;;;5013028;28;19921;-50
2022/04/27 09:59:17;;;;;;;;;;;15.20;89.70;;;;;;5008426;28;19943;-52
2022/04/27 10:01:43;;;;;;;;;;;15.40;88.80;;;;;;5014215;28;20197;-55
2022/04/27 10:04:10;;;;;;;;;;;15.60;86.90;;;;;;5009637;28;19917;-50
2022/04/27 10:06:36;;;;;;;;;;;15.90;86.00;;;;;;5007764;28;19919;-57
2022/04/27 10:09:03;;;;;;;;;;;16.20;83.90;;;;;;5011077;28;20509;-55
2022/04/27 10:11:30;;;;;;;;;;;16.30;75.50;;;;;;5009463;28;19917;-51
2022/04/27 10:13:56;;;;;;;;;;;16.40;78.10;;;;;;5012835;28;19917;-54
2022/04/27 10:16:23;;;;;;;;;;;16.50;73.20;;;;;;5014441;28;20353;-55
2022/04/27 10:18:49;;;;;;;;;;;16.50;68.00;;;;;;5009389;28;19922;-55
2022/04/27 10:21:39;;;;;;;;;;;16.60;68.80;;;;;;5014262;28;20393;-51
2022/04/27 10:24:05;;;;;;;;;;;16.60;74.70;;;;;;5015895;28;20330;-57
2022/04/27 10:26:30;;;;;;;;;;;16.60;69.10;;;;;;5008274;28;20282;-52
2022/04/27 10:29:00;;;;;;;;;;;16.70;71.20;;;;;;5008907;28;20395;-54
2022/04/27 10:31:40;;;;;;;;;;;16.80;71.30;;;;;;5013408;28;19921;-54
2022/04/27 10:34:18;;;;;;;;;;;16.80;68.20;;;;;;5014535;28;19917;-53
2022/04/27 10:36:44;;;;;;;;;;;16.80;68.90;;;;;;5007841;28;19964;-52
2022/04/27 10:39:13;;;;;;;;;;;16.80;66.00;;;;;;5009118;28;19918;-54
2022/04/27 10:41:39;;;;;;;;;;;16.80;63.60;;;;;;5011071;28;19980;-53
2022/04/27 10:44:04;;;;;;;;;;;16.70;66.30;;;;;;5008810;28;19914;-54
2022/04/27 10:46:38;;;;;;;;;;;16.80;65.70;;;;;;5009430;28;19995;-51
2022/04/27 10:49:22;;;;;;;;;;;16.80;68.20;;;;;;5011017;28;19922;-57
2022/04/27 10:52:03;;;;;;;;;;;17.00;64.90;;;;;;5008904;28;19914;-54
2022/04/27 10:54:31;;;;;;;;;;;17.00;64.80;;;;;;5011469;28;19921;-56
2022/04/27 10:57:15;;;;;;;;;;;17.10;64.80;;;;;;5012725;28;19924;-53
2022/04/27 10:59:47;;;;;;;;;;;17.20;65.40;;;;;;5016970;28;20302;-54
2022/04/27 11:02:34;;;;;;;;;;;17.40;63.10;;;;;;5016047;28;19945;-58
2022/04/27 11:05:12;;;;;;;;;;;17.20;62.00;;;;;;5012157;28;20290;-54
2022/04/27 11:07:38;;;;;;;;;;;17.00;61.10;;;;;;5009411;28;19924;-54
2022/04/27 11:10:10;;;;;;;;;;;17.20;65.10;;;;;;5010273;28;20012;-53
2022/04/27 11:12:36;;;;;;;;;;;17.40;63.60;;;;;;5017962;28;19968;-57
2022/04/27 11:15:03;;;;;;;;;;;17.40;61.70;;;;;;5011614;28;19928;-57
2022/04/27 11:17:29;;;;;;;;;;;17.30;60.90;;;;;;5017092;28;20348;-53
2022/04/27 11:19:54;;;;;;;;;;;17.30;60.60;;;;;;5010841;28;19917;-54
2022/04/27 11:22:20;;;;;;;;;;;17.40;61.50;;;;;;5011287;28;19920;-57
2022/04/27 11:24:47;;;;;;;;;;;17.50;61.80;;;;;;5011365;28;20568;-54
2022/04/27 11:27:12;;;;;;;;;;;17.60;63.70;;;;;;5010942;28;19917;-54
2022/04/27 11:29:38;;;;;;;;;;;17.90;64.60;;;;;;5011151;28;19928;-51
2022/04/27 11:32:07;;;;;;;;;;;18.10;62.90;;;;;;5013148;28;19914;-54
2022/04/27 11:34:33;;;;;;;;;;;18.10;66.80;;;;;;5015815;28;19914;-54
2022/04/27 11:37:11;;;;;;;;;;;18.30;65.40;;;;;;5014803;28;19917;-53
2022/04/27 11:39:37;;;;;;;;;;;18.30;64.80;;;;;;5011954;28;19940;-57
2022/04/27 11:42:03;;;;;;;;;;;18.30;65.40;;;;;;5014781;28;19913;-57
2022/04/27 11:44:30;;;;;;;;;;;18.30;62.70;;;;;;5012455;28;19953;-54
2022/04/27 11:46:56;;;;;;;;;;;18.20;62.50;;;;;;5016237;28;20438;-56
2022/04/27 11:49:23;;;;;;;;;;;18.30;63.60;;;;;;5015149;28;19921;-53
2022/04/27 11:51:48;;;;;;;;;;;18.40;62.50;;;;;;5015409;28;19917;-51
2022/04/27 11:54:24;;;;;;;;;;;18.30;61.20;;;;;;5011998;28;19920;-55
2022/04/27 11:56:54;;;;;;;;;;;18.20;59.10;;;;;;5013872;28;19932;-51
2022/04/27 11:59:19;;;;;;;;;;;17.70;58.70;;;;;;5020100;28;20011;-52
2022/04/27 12:01:52;;;;;;;;;;;17.50;60.70;;;;;;5017774;28;19913;-54
2022/04/27 12:04:17;;;;;;;;;;;17.60;64.00;;;;;;5016876;28;20013;-54
2022/04/27 12:06:44;;;;;;;;;;;18.00;61.80;;;;;;5019296;28;19984;-52
2022/04/27 12:09:17;;;;;;;;;;;18.10;62.30;;;;;;5015540;28;19913;-51
2022/04/27 12:11:42;;;;;;;;;;;18.30;62.30;;;;;;5013573;28;19914;-54
2022/04/27 12:14:08;;;;;;;;;;;18.60;61.40;;;;;;5014771;28;20343;-52
2022/04/27 12:16:34;;;;;;;;;;;18.60;61.20;;;;;;5011172;28;19913;-53
2022/04/27 12:19:00;;;;;;;;;;;18.60;60.70;;;;;;5012846;28;19914;-53
2022/04/27 12:21:26;;;;;;;;;;;18.50;58.10;;;;;;5010678;28;20553;-56
2022/04/27 12:23:52;;;;;;;;;;;18.30;58.40;;;;;;5010314;28;20520;-54
2022/04/27 12:26:18;;;;;;;;;;;18.20;57.70;;;;;;5009557;28;19928;-55
2022/04/27 12:28:46;;;;;;;;;;;18.10;58.30;;;;;;5009784;28;19976;-54
2022/04/27 12:31:14;;;;;;;;;;;18.00;59.30;;;;;;5010693;28;19924;-54
2022/04/27 12:33:43;;;;;;;;;;;18.20;61.00;;;;;;5010995;28;20378;-55
2022/04/27 12:38:58;;;;;;;;;;;18.60;60.80;;;;;;5014779;28;20290;-56
2022/04/27 12:41:28;;;;;;;;;;;18.90;62.10;;;;;;5011227;28;19913;-53
2022/04/27 12:43:54;;;;;;;;;;;19.20;58.60;;;;;;5014762;28;19914;-52
2022/04/27 12:46:20;;;;;;;;;;;19.10;56.00;;;;;;5015793;28;20401;-55
2022/04/27 12:48:45;;;;;;;;;;;18.80;56.40;;;;;;5014040;28;19913;-52
2022/04/27 12:51:11;;;;;;;;;;;18.80;57.20;;;;;;5011673;28;20231;-54
2022/04/27 12:53:36;;;;;;;;;;;18.80;57.70;;;;;;5014584;28;19922;-53
2022/04/27 12:56:07;;;;;;;;;;;18.80;57.10;;;;;;5018485;28;19990;-54
2022/04/27 12:58:32;;;;;;;;;;;18.80;56.80;;;;;;5009932;28;19917;-55
2022/04/27 13:00:58;;;;;;;;;;;19.00;57.20;;;;;;5010163;28;19924;-57
2022/04/27 13:03:24;;;;;;;;;;;19.00;57.00;;;;;;5015121;28;20017;-50
2022/04/27 13:05:50;;;;;;;;;;;19.00;56.80;;;;;;5018202;28;19917;-50
2022/04/27 13:08:16;;;;;;;;;;;19.00;55.70;;;;;;5015528;28;20068;-53
2022/04/27 13:13:26;;;;;;;;;;;18.70;55.50;;;;;;5010430;28;20354;-55
2022/04/27 13:15:52;;;;;;;;;;;18.80;57.20;;;;;;5009690;28;20004;-54
2022/04/27 13:18:18;;;;;;;;;;;19.00;56.40;;;;;;5012188;28;20334;-55
2022/04/27 13:20:50;;;;;;;;;;;19.10;57.60;;;;;;5009746;28;20048;-56
2022/04/27 13:23:16;;;;;;;;;;;19.30;56.40;;;;;;5009244;28;19913;-56
2022/04/27 13:25:44;;;;;;;;;;;19.60;56.20;;;;;;5008525;28;19917;-56
2022/04/27 13:28:10;;;;;;;;;;;19.90;56.30;;;;;;5013058;28;20073;-55
2022/04/27 13:30:36;;;;;;;;;;;20.00;55.60;;;;;;5009582;28;19921;-56
2022/04/27 13:33:01;;;;;;;;;;;20.10;54.80;;;;;;5013433;28;19940;-55
2022/04/27 13:35:27;;;;;;;;;;;20.00;53.90;;;;;;5008557;28;19922;-54
2022/04/27 13:37:53;;;;;;;;;;;20.00;53.80;;;;;;5009764;28;20017;-55
2022/04/27 13:40:18;;;;;;;;;;;20.10;54.40;;;;;;5009510;28;19917;-55
2022/04/27 13:42:44;;;;;;;;;;;20.20;53.50;;;;;;5008629;28;19917;-54
2022/04/27 13:45:14;;;;;;;;;;;20.30;53.30;;;;;;5008831;28;19921;-57
2022/04/27 13:47:40;;;;;;;;;;;20.30;51.40;;;;;;5009186;28;20375;-56
2022/04/27 13:50:06;;;;;;;;;;;20.10;53.30;;;;;;5011399;28;20011;-52
2022/04/27 13:52:32;;;;;;;;;;;20.10;52.80;;;;;;5009784;28;19957;-55
2022/04/27 13:54:59;;;;;;;;;;;20.20;53.10;;;;;;5013415;28;19924;-55
2022/04/27 13:57:24;;;;;;;;;;;20.30;52.00;;;;;;5009027;28;20284;-53
2022/04/27 13:59:50;;;;;;;;;;;20.20;52.80;;;;;;5008021;28;19913;-54
2022/04/27 14:02:15;;;;;;;;;;;20.20;53.00;;;;;;5007725;28;20416;-54
2022/04/27 14:04:41;;;;;;;;;;;20.10;52.80;;;;;;5007147;28;19917;-54
2022/04/27 14:07:06;;;;;;;;;;;20.10;53.00;;;;;;5007484;28;20525;-53
2022/04/27 14:09:32;;;;;;;;;;;20.00;53.00;;;;;;5006774;28;19976;-56
2022/04/27 14:14:42;;;;;;;;;;;19.80;53.20;;;;;;5013852;28;19920;-55
2022/04/27 14:19:51;;;;;;;;;;;19.30;53.10;;;;;;5011279;28;20289;-53
2022/04/27 14:22:17;;;;;;;;;;;19.30;54.40;;;;;;5007432;28;19933;-57
2022/04/27 14:24:42;;;;;;;;;;;19.50;53.30;;;;;;5007923;28;19940;-54
2022/04/27 14:27:08;;;;;;;;;;;19.70;54.00;;;;;;5007696;28;19917;-50
2022/04/27 14:29:33;;;;;;;;;;;19.90;52.60;;;;;;5007588;28;19921;-54
2022/04/27 14:32:01;;;;;;;;;;;19.80;51.90;;;;;;5008154;28;20016;-51
2022/04/27 14:34:30;;;;;;;;;;;19.80;52.90;;;;;;5014738;28;19917;-49
2022/04/27 14:36:56;;;;;;;;;;;19.90;52.90;;;;;;5008516;28;20011;-52
2022/04/27 14:39:21;;;;;;;;;;;20.00;52.90;;;;;;5006866;28;19957;-51
2022/04/27 14:41:47;;;;;;;;;;;20.20;51.90;;;;;;5007367;28;20370;-53
2022/04/27 14:44:12;;;;;;;;;;;20.20;51.80;;;;;;5007240;28;19933;-56
2022/04/27 14:46:38;;;;;;;;;;;20.10;50.80;;;;;;5009941;28;19910;-50
2022/04/27 14:49:04;;;;;;;;;;;19.80;50.50;;;;;;5013836;28;20337;-56
2022/04/27 14:51:30;;;;;;;;;;;19.50;51.80;;;;;;5016103;28;20168;-50